createdAt,value
2019-05-29T00:00:48.517Z,0.80
2019-05-29T00:03:18.662Z,0.57
2019-05-29T00:05:47.994Z,0.80
2019-05-29T00:08:18.497Z,0.70
2019-05-29T00:10:47.940Z,1.00
2019-05-29T00:13:18.457Z,0.70
2019-05-29T00:15:48.144Z,1.00
2019-05-29T00:18:18.599Z,0.70
2019-05-29T00:20:48.292Z,1.00
2019-05-29T00:23:18.820Z,0.93
2019-05-29T00:25:48.540Z,1.00
2019-05-29T00:28:18.257Z,0.83
2019-05-29T00:30:47.880Z,1.00
2019-05-29T00:33:18.349Z,1.17
2019-05-29T00:35:47.880Z,0.90
2019-05-29T00:38:17.605Z,1.30
2019-05-29T00:40:46.987Z,0.93
2019-05-29T00:43:17.551Z,0.87
2019-05-29T00:45:47.348Z,0.67
2019-05-29T00:48:17.936Z,0.90
2019-05-29T00:50:47.323Z,0.70
2019-05-29T00:53:16.957Z,1.30
2019-05-29T00:55:46.618Z,0.90
2019-05-29T00:58:17.192Z,0.83
2019-05-29T01:00:46.700Z,1.03
2019-05-29T01:03:16.087Z,0.83
2019-05-29T01:05:45.467Z,1.10
2019-05-29T01:08:14.862Z,1.07
2019-05-29T01:10:44.242Z,0.77
2019-05-29T01:13:15.052Z,0.87
2019-05-29T01:15:44.592Z,1.13
2019-05-29T01:18:14.364Z,1.10
2019-05-29T01:20:43.740Z,0.90
2019-05-29T01:23:14.191Z,1.20
2019-05-29T01:25:43.745Z,1.13
2019-05-29T01:28:13.140Z,1.10
2019-05-29T01:30:42.854Z,0.93
2019-05-29T01:33:16.806Z,0.87
2019-05-29T01:35:43.730Z,1.00
2019-05-29T01:38:13.114Z,1.20
2019-05-29T01:40:43.637Z,1.20
2019-05-29T01:43:13.266Z,1.00
2019-05-29T01:45:42.645Z,1.20
2019-05-29T01:48:12.286Z,1.07
2019-05-29T01:50:42.108Z,1.33
2019-05-29T01:53:11.777Z,1.00
2019-05-29T01:55:41.157Z,1.10
2019-05-29T01:58:10.551Z,1.17
2019-05-29T02:00:40.200Z,1.10
2019-05-29T02:03:09.587Z,1.03
2019-05-29T02:05:38.970Z,1.47
2019-05-29T02:08:08.350Z,1.23
2019-05-29T02:10:37.995Z,0.93
2019-05-29T02:13:07.737Z,0.90
2019-05-29T02:15:37.126Z,1.20
2019-05-29T02:18:06.512Z,1.10
2019-05-29T02:20:35.904Z,1.30
2019-05-29T02:23:05.348Z,0.80
2019-05-29T02:25:34.979Z,0.80
2019-05-29T02:28:04.650Z,0.93
2019-05-29T02:30:34.315Z,0.90
2019-05-29T02:33:03.983Z,0.90
2019-05-29T02:35:33.625Z,0.70
2019-05-29T02:38:03.300Z,0.97
2019-05-29T02:40:32.690Z,0.87
2019-05-29T02:43:02.074Z,0.97
2019-05-29T02:45:52.719Z,1.17
2019-05-29T02:48:03.277Z,1.20
2019-05-29T02:50:32.639Z,0.93
2019-05-29T02:53:02.367Z,1.00
2019-05-29T02:55:31.758Z,1.30
2019-05-29T02:58:01.151Z,1.23
2019-05-29T03:00:54.466Z,1.20
2019-05-29T03:03:26.551Z,0.93
2019-05-29T03:05:57.109Z,1.10
2019-05-29T03:08:28.860Z,0.70
2019-05-29T03:10:57.580Z,0.83
2019-05-29T03:13:28.349Z,1.30
2019-05-29T03:16:10.374Z,1.10
2019-05-29T03:18:30.374Z,1.10
2019-05-29T03:21:01.062Z,1.17
2019-05-29T03:23:33.250Z,1.10
2019-05-29T03:26:02.130Z,1.37
2019-05-29T03:28:32.377Z,1.00
2019-05-29T03:31:02.629Z,1.17
2019-05-29T03:33:43.786Z,1.53
2019-05-29T03:36:03.468Z,1.30
2019-05-29T03:38:34.620Z,1.50
2019-05-29T03:41:03.966Z,1.50
2019-05-29T03:43:35.743Z,1.10
2019-05-29T03:46:04.733Z,1.40
2019-05-29T03:48:34.639Z,1.50
2019-05-29T03:51:04.070Z,1.43
2019-05-29T03:53:34.253Z,1.33
2019-05-29T03:56:04.566Z,1.50
2019-05-29T03:58:35.190Z,1.40
2019-05-29T04:01:05.233Z,1.07
2019-05-29T04:03:35.614Z,1.50
2019-05-29T04:06:06.242Z,1.30
2019-05-29T04:08:36.386Z,1.00
2019-05-29T04:11:09.361Z,0.97
2019-05-29T04:13:39.501Z,1.20
2019-05-29T04:16:11.127Z,1.30
2019-05-29T04:18:42.349Z,0.90
2019-05-29T04:21:13.691Z,1.60
2019-05-29T04:23:47.532Z,1.10
2019-05-29T04:26:19.847Z,1.30
2019-05-29T04:28:50.454Z,1.10
2019-05-29T04:31:20.169Z,1.17
2019-05-29T04:33:49.539Z,1.30
2019-05-29T04:36:19.266Z,1.30
2019-05-29T04:38:48.643Z,1.47
2019-05-29T04:41:18.028Z,1.20
2019-05-29T04:43:47.681Z,1.03
2019-05-29T04:46:17.394Z,1.60
2019-05-29T04:48:46.854Z,1.43
2019-05-29T04:51:16.252Z,1.40
2019-05-29T04:53:45.912Z,0.97
2019-05-29T04:56:15.294Z,0.80
2019-05-29T04:58:44.677Z,1.10
2019-05-29T05:01:14.069Z,1.23
2019-05-29T05:03:43.732Z,1.30
2019-05-29T05:06:13.108Z,0.87
2019-05-29T05:08:42.731Z,1.20
2019-05-29T05:11:12.458Z,1.20
2019-05-29T05:13:42.153Z,1.30
2019-05-29T05:16:11.556Z,1.43
2019-05-29T05:18:40.932Z,1.17
2019-05-29T05:21:10.327Z,1.07
2019-05-29T05:23:40.511Z,1.20
2019-05-29T05:26:10.404Z,1.10
2019-05-29T05:28:43.563Z,1.10
2019-05-29T05:31:10.898Z,1.57
2019-05-29T05:33:40.972Z,1.57
2019-05-29T05:36:10.669Z,1.53
2019-05-29T05:38:41.055Z,1.70
2019-05-29T05:41:11.071Z,1.47
2019-05-29T05:43:41.408Z,1.13
2019-05-29T05:46:11.258Z,1.13
2019-05-29T05:48:41.522Z,1.70
2019-05-29T05:51:11.129Z,1.47
2019-05-29T05:53:41.802Z,1.00
2019-05-29T05:56:11.534Z,1.50
2019-05-29T05:58:42.238Z,1.50
2019-05-29T06:01:11.965Z,1.33
2019-05-29T06:03:42.487Z,1.30
2019-05-29T06:06:12.055Z,1.40
2019-05-29T06:08:42.506Z,1.60
2019-05-29T06:11:11.985Z,1.30
2019-05-29T06:13:42.565Z,1.40
2019-05-29T06:16:12.561Z,1.47
2019-05-29T06:18:43.062Z,1.50
2019-05-29T06:21:12.762Z,1.50
2019-05-29T06:23:43.554Z,1.40
2019-05-29T06:26:13.356Z,1.33
2019-05-29T06:28:43.469Z,1.67
2019-05-29T06:31:12.960Z,1.30
2019-05-29T06:33:43.940Z,1.30
2019-05-29T06:36:13.914Z,1.60
2019-05-29T06:38:44.437Z,1.00
2019-05-29T06:41:13.906Z,1.03
2019-05-29T06:43:44.350Z,1.30
2019-05-29T06:46:14.005Z,1.40
2019-05-29T06:48:56.346Z,1.10
2019-05-29T06:51:14.668Z,1.50
2019-05-29T06:53:44.293Z,1.20
2019-05-29T06:56:13.826Z,1.10
2019-05-29T06:58:44.323Z,1.27
2019-05-29T07:01:13.989Z,1.20
2019-05-29T07:03:43.994Z,1.07
2019-05-29T07:09:09.339Z,1.00
2019-05-29T07:11:39.065Z,1.00
2019-05-29T07:14:08.640Z,1.07
2019-05-29T07:16:46.347Z,0.80
2019-05-29T07:19:25.314Z,0.83
2019-05-29T07:21:40.933Z,0.97
2019-05-29T07:24:10.362Z,0.90
2019-05-29T07:26:41.066Z,1.07
2019-05-29T07:29:10.845Z,0.90
2019-05-29T07:31:40.923Z,0.90
2019-05-29T07:34:10.677Z,0.90
2019-05-29T07:36:43.891Z,0.87
2019-05-29T07:39:13.785Z,0.93
2019-05-29T07:41:43.692Z,1.10
2019-05-29T07:44:13.147Z,0.83
2019-05-29T07:46:45.109Z,1.20
2019-05-29T07:49:14.263Z,0.97
2019-05-29T07:51:44.945Z,1.03
2019-05-29T07:54:14.463Z,1.10
2019-05-29T07:56:44.503Z,1.10
2019-05-29T07:59:14.011Z,0.90
2019-05-29T08:01:43.394Z,0.90
2019-05-29T08:04:13.047Z,0.97
2019-05-29T08:06:48.362Z,1.00
2019-05-29T08:09:13.890Z,1.00
2019-05-29T08:11:43.632Z,1.07
2019-05-29T08:14:13.241Z,1.00
2019-05-29T08:16:43.943Z,0.77
2019-05-29T08:19:13.376Z,1.00
2019-05-29T08:21:44.666Z,1.00
2019-05-29T08:24:14.424Z,1.00
2019-05-29T08:26:44.835Z,0.90
2019-05-29T08:29:14.276Z,0.80
2019-05-29T08:31:44.730Z,0.87
2019-05-29T08:34:14.152Z,1.20
2019-05-29T08:37:02.198Z,1.00
2019-05-29T08:39:32.940Z,0.87
2019-05-29T08:42:06.175Z,1.10
2019-05-29T08:44:17.276Z,1.00
2019-05-29T08:47:06.472Z,1.20
2019-05-29T08:49:18.047Z,0.80
2019-05-29T08:51:48.062Z,0.97
2019-05-29T08:54:23.986Z,0.90
2019-05-29T08:56:48.655Z,1.03
2019-05-29T08:59:18.040Z,1.00
2019-05-29T09:01:48.672Z,1.03
2019-05-29T09:04:18.545Z,1.03
2019-05-29T09:06:49.231Z,1.03
2019-05-29T09:09:18.703Z,0.90
2019-05-29T09:11:49.922Z,0.90
2019-05-29T09:14:19.204Z,1.00
2019-05-29T09:16:48.569Z,0.80
2019-05-29T09:19:18.930Z,0.93
2019-05-29T09:21:48.970Z,0.80
2019-05-29T09:24:19.362Z,0.80
2019-05-29T09:26:48.814Z,1.03
2019-05-29T09:29:21.808Z,0.90
2019-05-29T09:31:49.585Z,0.73
2019-05-29T09:34:20.453Z,1.10
2019-05-29T09:36:50.390Z,0.83
2019-05-29T09:39:21.072Z,1.00
2019-05-29T09:41:50.708Z,0.80
2019-05-29T09:44:37.259Z,0.90
2019-05-29T09:46:51.262Z,0.80
2019-05-29T09:49:21.826Z,1.00
2019-05-29T09:51:52.541Z,0.90
2019-05-29T09:54:22.699Z,1.10
2019-05-29T09:56:58.369Z,0.87
2019-05-29T09:59:32.637Z,0.90
2019-05-29T10:02:07.062Z,0.70
2019-05-29T10:04:33.217Z,0.90
2019-05-29T10:07:04.513Z,0.97
2019-05-29T10:09:33.906Z,1.20
2019-05-29T10:12:06.698Z,1.20
2019-05-29T10:14:37.890Z,1.00
2019-05-29T10:17:11.938Z,1.00
2019-05-29T10:19:38.490Z,0.90
2019-05-29T10:22:07.868Z,0.90
2019-05-29T10:24:37.531Z,0.90
2019-05-29T10:27:13.749Z,1.10
2019-05-29T10:29:44.484Z,0.93
2019-05-29T10:32:14.223Z,0.93
2019-05-29T10:34:44.323Z,1.17
2019-05-29T10:37:17.814Z,1.03
2019-05-29T10:39:49.033Z,1.03
2019-05-29T10:42:28.852Z,0.90
2019-05-29T10:44:58.829Z,0.93
2019-05-29T10:47:28.249Z,0.80
2019-05-29T10:49:57.912Z,0.87
2019-05-29T10:52:28.263Z,1.10
2019-05-29T10:54:58.077Z,0.90
2019-05-29T10:57:27.648Z,1.03
2019-05-29T10:59:57.033Z,1.10
2019-05-29T11:02:26.441Z,0.90
2019-05-29T11:04:59.082Z,1.10
2019-05-29T11:07:27.376Z,1.47
2019-05-29T11:09:57.328Z,1.20
2019-05-29T11:12:31.810Z,0.90
2019-05-29T11:15:20.382Z,1.30
2019-05-29T11:17:38.131Z,1.20
2019-05-29T11:20:10.590Z,1.27
2019-05-29T11:22:39.976Z,1.00
2019-05-29T11:25:22.389Z,1.10
2019-05-29T11:27:41.394Z,0.97
2019-05-29T11:30:12.565Z,1.00
2019-05-29T11:32:42.225Z,1.47
2019-05-29T11:35:11.950Z,1.03
2019-05-29T11:37:44.344Z,1.17
2019-05-29T11:40:14.337Z,1.50
2019-05-29T11:42:44.073Z,1.10
2019-05-29T11:45:15.328Z,1.20
2019-05-29T11:47:44.898Z,0.90
2019-05-29T11:50:19.676Z,1.00
2019-05-29T11:52:46.126Z,0.87
2019-05-29T11:55:15.911Z,1.00
2019-05-29T11:57:45.582Z,0.83
2019-05-29T12:00:20.133Z,1.00
2019-05-29T12:02:48.800Z,1.00
2019-05-29T12:05:18.878Z,1.00
2019-05-29T12:07:48.527Z,1.07
2019-05-29T12:10:18.576Z,0.90
2019-05-29T12:12:48.258Z,1.40
2019-05-29T12:15:18.969Z,0.97
2019-05-29T12:17:48.974Z,0.90
2019-05-29T12:20:28.590Z,1.03
2019-05-29T12:23:13.061Z,1.10
2019-05-29T12:25:21.124Z,1.03
2019-05-29T12:27:50.511Z,1.27
2019-05-29T12:30:20.600Z,0.90
2019-05-29T12:32:50.342Z,1.00
2019-05-29T12:35:19.965Z,1.43
2019-05-29T12:37:49.359Z,0.97
2019-05-29T12:40:21.669Z,0.83
2019-05-29T12:42:51.461Z,1.43
2019-05-29T12:45:22.493Z,1.40
2019-05-29T12:47:53.823Z,2.10
2019-05-29T12:50:24.023Z,1.23
2019-05-29T12:52:53.761Z,1.63
2019-05-29T12:55:23.204Z,1.07
2019-05-29T12:57:53.850Z,1.10
2019-05-29T13:00:23.547Z,1.20
2019-05-29T13:02:54.275Z,0.90
2019-05-29T13:05:24.255Z,1.10
2019-05-29T13:07:54.724Z,0.90
2019-05-29T13:10:30.606Z,0.90
2019-05-29T13:13:02.426Z,1.33
2019-05-29T13:15:27.840Z,1.33
2019-05-29T13:18:02.440Z,0.90
2019-05-29T13:20:28.497Z,0.80
2019-05-29T13:22:59.787Z,1.03
2019-05-29T13:25:29.563Z,1.13
2019-05-29T13:27:59.846Z,1.17
2019-05-29T13:30:30.055Z,1.10
2019-05-29T13:33:03.053Z,1.00
2019-05-29T13:35:30.669Z,0.80
2019-05-29T13:38:00.981Z,0.93
2019-05-29T13:40:30.479Z,0.90
2019-05-29T13:43:05.518Z,0.90
2019-05-29T13:45:30.988Z,0.83
2019-05-29T13:48:01.343Z,1.03
2019-05-29T13:50:30.854Z,0.83
2019-05-29T13:53:01.285Z,1.23
2019-05-29T13:55:30.734Z,0.77
2019-05-29T13:58:00.104Z,0.90
2019-05-29T14:00:33.918Z,1.00
2019-05-29T14:03:02.466Z,0.93
2019-05-29T14:05:32.318Z,1.00
2019-05-29T14:08:02.768Z,1.00
2019-05-29T14:10:32.220Z,1.00
2019-05-29T14:13:02.944Z,0.70
2019-05-29T14:15:32.662Z,0.97
2019-05-29T14:18:02.858Z,0.80
2019-05-29T14:20:32.562Z,0.90
2019-05-29T14:23:03.210Z,0.93
2019-05-29T14:25:32.715Z,0.90
2019-05-29T14:28:02.686Z,0.77
2019-05-29T14:30:32.379Z,0.70
2019-05-29T14:33:02.381Z,1.10
2019-05-29T14:35:32.046Z,1.10
2019-05-29T14:38:01.778Z,0.73
2019-05-29T14:40:31.189Z,1.10
2019-05-29T14:43:01.728Z,0.90
2019-05-29T14:45:31.146Z,0.70
2019-05-29T14:48:02.133Z,0.80
2019-05-29T14:50:31.845Z,1.17
2019-05-29T14:53:02.787Z,0.90
2019-05-29T14:55:32.294Z,0.80
2019-05-29T14:58:01.672Z,0.80
2019-05-29T15:00:31.408Z,0.90
2019-05-29T15:03:00.787Z,0.90
2019-05-29T15:05:30.244Z,0.67
2019-05-29T15:07:59.630Z,0.80
2019-05-29T15:10:29.334Z,0.83
2019-05-29T15:12:58.955Z,1.20
2019-05-29T15:15:28.380Z,1.10
2019-05-29T15:17:57.755Z,0.90
2019-05-29T15:20:27.146Z,0.90
2019-05-29T15:22:56.522Z,0.87
2019-05-29T15:25:25.995Z,1.13
2019-05-29T15:27:55.369Z,1.00
2019-05-29T15:30:24.900Z,0.90
2019-05-29T15:32:54.717Z,0.90
2019-05-29T15:35:24.189Z,0.97
2019-05-29T15:37:53.542Z,0.83
2019-05-29T15:40:23.012Z,1.03
2019-05-29T15:42:52.683Z,1.00
2019-05-29T15:45:23.697Z,0.77
2019-05-29T15:47:53.333Z,0.90
2019-05-29T15:50:22.723Z,0.83
2019-05-29T15:52:52.113Z,0.60
2019-05-29T15:55:32.147Z,1.00
2019-05-29T15:57:53.204Z,0.80
2019-05-29T16:00:23.805Z,0.93
2019-05-29T16:02:53.185Z,1.10
2019-05-29T16:05:22.842Z,1.07
2019-05-29T16:07:52.224Z,1.00
2019-05-29T16:10:23.317Z,1.00
2019-05-29T16:12:52.934Z,0.70
2019-05-29T16:15:22.760Z,0.97
2019-05-29T16:17:52.417Z,0.90
2019-05-29T16:20:22.955Z,0.90
2019-05-29T16:22:52.662Z,1.00
2019-05-29T16:25:37.846Z,0.70
2019-05-29T16:27:53.339Z,0.80
2019-05-29T16:30:23.231Z,0.90
2019-05-29T16:32:52.616Z,0.60
2019-05-29T16:35:23.960Z,0.63
2019-05-29T16:37:53.588Z,1.00
2019-05-29T16:40:23.480Z,1.10
2019-05-29T16:42:52.860Z,0.60
2019-05-29T16:45:22.673Z,0.90
2019-05-29T16:47:52.056Z,0.80
2019-05-29T16:50:22.899Z,0.80
2019-05-29T16:52:52.355Z,1.30
2019-05-29T16:55:22.975Z,0.73
2019-05-29T16:57:52.593Z,0.80
2019-05-29T17:00:23.504Z,0.83
2019-05-29T17:02:53.140Z,1.00
2019-05-29T17:05:24.241Z,1.00
2019-05-29T17:07:53.744Z,0.70
2019-05-29T17:10:35.764Z,1.00
2019-05-29T17:13:06.934Z,0.97
2019-05-29T17:15:36.662Z,0.70
2019-05-29T17:18:06.654Z,0.90
2019-05-29T17:20:44.622Z,0.70
2019-05-29T17:23:17.065Z,0.87
2019-05-29T17:25:46.492Z,0.73
2019-05-29T17:28:18.949Z,0.50
2019-05-29T17:30:46.975Z,1.10
2019-05-29T17:33:17.074Z,0.80
2019-05-29T17:35:46.755Z,0.90
2019-05-29T17:38:16.961Z,0.53
2019-05-29T17:40:46.487Z,0.70
2019-05-29T17:43:20.254Z,0.80
2019-05-29T17:45:47.252Z,0.47
2019-05-29T17:48:17.550Z,0.83
2019-05-29T17:50:47.340Z,0.73
2019-05-29T17:53:17.813Z,0.80
2019-05-29T17:55:47.228Z,0.90
2019-05-29T17:58:18.558Z,0.80
2019-05-29T18:00:48.427Z,0.80
2019-05-29T18:03:18.085Z,0.77
2019-05-29T18:05:47.473Z,0.80
2019-05-29T18:08:16.892Z,1.00
2019-05-29T18:10:46.551Z,0.90
2019-05-29T18:13:16.972Z,0.60
2019-05-29T18:15:46.435Z,1.07
2019-05-29T18:18:17.358Z,1.00
2019-05-29T18:20:47.233Z,0.60
2019-05-29T18:23:17.514Z,0.83
2019-05-29T18:25:46.972Z,0.97
2019-05-29T18:28:16.359Z,0.70
2019-05-29T18:30:46.085Z,0.83
2019-05-29T18:33:15.472Z,0.80
2019-05-29T18:35:44.872Z,0.80
2019-05-29T18:38:14.608Z,0.90
2019-05-29T18:40:43.989Z,0.70
2019-05-29T18:43:13.707Z,0.97
2019-05-29T18:45:43.084Z,0.80
2019-05-29T18:48:12.472Z,0.90
2019-05-29T18:50:44.299Z,0.93
2019-05-29T18:53:12.970Z,1.27
2019-05-29T18:55:42.665Z,1.10
2019-05-29T18:58:12.310Z,1.17
2019-05-29T19:00:41.696Z,1.10
2019-05-29T19:03:11.400Z,1.23
2019-05-29T19:05:43.459Z,1.00
2019-05-29T19:08:12.996Z,1.10
2019-05-29T19:10:42.380Z,1.30
2019-05-29T19:13:11.774Z,1.10
2019-05-29T19:15:41.477Z,1.30
2019-05-29T19:18:10.919Z,1.07
2019-05-29T19:20:40.364Z,1.00
2019-05-29T19:23:10.096Z,0.90
2019-05-29T19:25:39.473Z,1.00
2019-05-29T19:28:09.456Z,1.73
2019-05-29T19:30:39.092Z,2.03
2019-05-29T19:33:08.478Z,1.67
2019-05-29T19:35:38.131Z,2.13
2019-05-29T19:38:07.519Z,1.90
2019-05-29T19:40:37.153Z,1.80
2019-05-29T19:43:06.856Z,1.90
2019-05-29T19:45:36.245Z,1.40
2019-05-29T19:48:05.804Z,1.60
2019-05-29T19:50:54.826Z,1.33
2019-05-29T19:53:26.151Z,1.63
2019-05-29T19:55:55.382Z,1.40
2019-05-29T19:58:25.586Z,1.40
2019-05-29T20:00:55.426Z,1.10
2019-05-29T20:03:24.833Z,1.10
2019-05-29T20:05:54.531Z,1.30
2019-05-29T20:08:26.954Z,1.03
2019-05-29T20:10:56.386Z,1.53
2019-05-29T20:13:26.111Z,1.43
2019-05-29T20:15:55.570Z,1.30
2019-05-29T20:18:25.227Z,1.37
2019-05-29T20:20:54.612Z,1.37
2019-05-29T20:23:24.028Z,1.37
2019-05-29T20:25:53.412Z,1.30
2019-05-29T20:28:22.843Z,1.33
2019-05-29T20:30:52.552Z,1.50
2019-05-29T20:33:21.927Z,1.30
2019-05-29T20:35:51.678Z,1.40
2019-05-29T20:38:22.412Z,1.20
2019-05-29T20:40:51.830Z,1.30
2019-05-29T20:43:21.235Z,1.30
2019-05-29T20:45:50.884Z,1.33
2019-05-29T20:48:40.772Z,1.03
2019-05-29T20:50:57.404Z,1.20
2019-05-29T20:53:33.409Z,1.23
2019-05-29T20:56:02.826Z,1.10
2019-05-29T20:58:33.680Z,1.00
2019-05-29T21:01:06.263Z,0.90
2019-05-29T21:03:36.322Z,1.37
2019-05-29T21:06:06.320Z,1.40
2019-05-29T21:08:36.892Z,0.97
2019-05-29T21:11:06.297Z,0.93
2019-05-29T21:13:35.687Z,1.23
2019-05-29T21:16:05.359Z,0.90
2019-05-29T21:18:35.777Z,1.20
2019-05-29T21:21:05.344Z,0.80
2019-05-29T21:23:36.254Z,1.17
2019-05-29T21:26:05.810Z,0.90
2019-05-29T21:28:43.050Z,1.23
2019-05-29T21:31:06.551Z,1.27
2019-05-29T21:33:35.941Z,0.90
2019-05-29T21:36:05.325Z,1.10
2019-05-29T21:38:36.026Z,1.20
2019-05-29T21:41:05.732Z,1.40
2019-05-29T21:43:36.454Z,1.47
2019-05-29T21:46:06.450Z,1.27
2019-05-29T21:48:36.995Z,1.40
2019-05-29T21:51:06.495Z,1.10
2019-05-29T21:53:37.254Z,1.23
2019-05-29T21:56:06.606Z,1.40
2019-05-29T21:58:35.985Z,1.70
2019-05-29T22:01:05.958Z,1.30
2019-05-29T22:03:35.333Z,1.10
2019-05-29T22:06:05.835Z,1.37
2019-05-29T22:08:36.849Z,1.13
2019-05-29T22:11:06.297Z,1.33
2019-05-29T22:13:35.710Z,1.30
2019-05-29T22:16:05.471Z,1.50
2019-05-29T22:18:34.852Z,1.63
2019-05-29T22:21:04.583Z,1.80
2019-05-29T22:23:34.298Z,1.87
2019-05-29T22:26:03.698Z,1.80
2019-05-29T22:28:33.156Z,1.90
2019-05-29T22:31:02.547Z,1.40
2019-05-29T22:33:32.215Z,1.60
2019-05-29T22:36:01.794Z,1.40
2019-05-29T22:38:31.157Z,1.57
2019-05-29T22:41:01.720Z,1.80
2019-05-29T22:43:31.664Z,1.47
2019-05-29T22:46:01.876Z,1.43
2019-05-29T22:48:31.597Z,1.60
2019-05-29T22:51:02.075Z,1.43
2019-05-29T22:53:31.436Z,1.40
2019-05-29T22:56:02.030Z,1.60
2019-05-29T22:58:31.774Z,1.53
2019-05-29T23:01:02.233Z,1.50
2019-05-29T23:03:31.679Z,1.23
2019-05-29T23:06:02.358Z,1.57
2019-05-29T23:08:31.925Z,1.70
2019-05-29T23:11:02.986Z,1.50
2019-05-29T23:13:32.901Z,1.70
2019-05-29T23:16:02.908Z,1.80
2019-05-29T23:18:32.367Z,1.57
2019-05-29T23:21:02.728Z,1.57
2019-05-29T23:23:32.111Z,1.77
2019-05-29T23:26:02.905Z,1.70
2019-05-29T23:28:32.955Z,1.73
2019-05-29T23:31:03.078Z,1.80
2019-05-29T23:33:32.512Z,1.50
2019-05-29T23:36:03.177Z,1.50
2019-05-29T23:38:32.627Z,1.90
2019-05-29T23:41:03.644Z,1.77
2019-05-29T23:43:33.145Z,1.63
2019-05-29T23:46:04.019Z,1.60
2019-05-29T23:48:33.864Z,1.80
2019-05-29T23:51:03.808Z,1.70
2019-05-29T23:53:33.335Z,1.80
2019-05-29T23:56:03.998Z,1.90
2019-05-29T23:58:33.361Z,1.97
